Richmond, Illinois
Current Conditions -  °F | °C
As of 11:35 PM on Thursday 27 Nov 2014 (Local Time) from KBUU Reporting Station
Clear Clear  
Wind Chill:   Ceiling: Unl
Heat Index:   Visibility: 10mi
Dew Point:   Wind: 0mph
Humidity: 92%   Direction: NA
Pressure: 30.36"   Gusts: NA
Location:  42.48°N, 88.31°W
Report Text: KBUU 280535Z AUTO 00000KT 10SM CLR M13/M14 A3036 RMK AO2 T11301141
Loading
Personal Weather Stations






























Interactive Weather Map New forecast layout! Learn more

10-Day Weather Forecast

Advertisements
Track Severe Weather on mobile